Old Hickory Observed Data For Previous 48 Hours

Caption
Day and Hour Reservoir Elevation (behind dam)* Tailwater Elevation (below dam)* Average Hourly Discharge*
1/16/2019 1 AM CST 444.00 402.74 42,000
1/16/2019 2 AM CST 444.01 402.67 42,400
1/16/2019 3 AM CST 444.02 402.65 42,400
1/16/2019 4 AM CST 444.02 402.63 42,400
1/16/2019 5 AM CST 444.04 402.64 42,000
1/16/2019 6 AM CST 444.04 402.63 42,000
1/16/2019 7 AM CST 444.06 402.76 42,000
1/16/2019 8 AM CST 444.04 402.74 42,000
1/16/2019 9 AM CST 444.06 402.96 42,700
1/16/2019 10 AM CST 444.06 402.86 42,700
1/16/2019 11 AM CST 444.06 402.96 42,700
1/16/2019 12 PM CST 444.02 402.82 42,700
1/16/2019 1 PM CST 444.08 402.88 42,300
1/16/2019 2 PM CST 444.08 402.88 42,300
1/16/2019 3 PM CST 444.08 402.88 42,300
1/16/2019 4 PM CST 444.08 402.88 42,300
1/16/2019 5 PM CST 444.10 402.90 42,300
1/16/2019 6 PM CST 444.11 402.91 42,300
1/16/2019 7 PM CST 444.10 402.91 42,300
1/16/2019 8 PM CST 444.09 402.92 42,300
1/16/2019 9 PM CST 444.08 402.93 42,300
1/16/2019 10 PM CST 444.10 402.95 42,300
1/16/2019 11 PM CST 444.10 402.96 42,300
1/17/2019 12 AM CST 444.10 402.96 42,300
1/17/2019 1 AM CST 444.11 402.93 42,300
1/17/2019 2 AM CST 444.11 402.92 42,300
1/17/2019 3 AM CST 444.11 402.91 42,300
1/17/2019 4 AM CST 444.12 402.90 42,300
1/17/2019 5 AM CST 444.12 402.89 42,300
1/17/2019 6 AM CST 444.12 402.88 42,300
1/17/2019 7 AM CST 444.16 403.13 42,700
1/17/2019 8 AM CST 444.14 403.05 42,700
1/17/2019 9 AM CST 444.13 402.96 42,700
1/17/2019 10 AM CST 444.15 402.96 42,700
1/17/2019 11 AM CST 444.16 402.96 42,700
1/17/2019 12 PM CST 444.18 402.96 42,700
1/17/2019 1 PM CST 444.17 402.97 42,300
1/17/2019 2 PM CST 444.17 402.98 42,300
1/17/2019 3 PM CST 444.16 402.99 42,300
1/17/2019 4 PM CST 444.16 402.98 42,300
1/17/2019 5 PM CST 444.19 402.96 42,300
1/17/2019 6 PM CST 444.18 402.98 42,300
1/17/2019 7 PM CST 444.20 402.98 42,300
1/17/2019 8 PM CST 444.22 402.98 42,300
1/17/2019 9 PM CST 444.25 402.98 42,300
1/17/2019 10 PM CST 444.27 403.00 42,300
1/17/2019 11 PM CST 444.28 403.00 42,300

Elevations are in feet above sea level. Discharges are in cubic feet per second and are reported at the end of the hour.